sensor_id;sensor_type;location;lat;lon;timestamp;temperature;humidity
52919;DHT22;38793;52.690;6.812;2023-06-14T00:00:12;18.30;64.90
52919;DHT22;38793;52.690;6.812;2023-06-14T00:02:40;18.20;65.60
52919;DHT22;38793;52.690;6.812;2023-06-14T00:05:07;18.10;65.40
52919;DHT22;38793;52.690;6.812;2023-06-14T00:07:37;18.10;65.20
52919;DHT22;38793;52.690;6.812;2023-06-14T00:10:13;18.00;65.60
52919;DHT22;38793;52.690;6.812;2023-06-14T00:12:39;18.00;65.40
52919;DHT22;38793;52.690;6.812;2023-06-14T00:15:05;18.00;65.60
52919;DHT22;38793;52.690;6.812;2023-06-14T00:17:31;18.00;65.80
52919;DHT22;38793;52.690;6.812;2023-06-14T00:19:58;17.90;65.60
52919;DHT22;38793;52.690;6.812;2023-06-14T00:22:24;17.90;65.70
52919;DHT22;38793;52.690;6.812;2023-06-14T00:24:50;17.80;65.70
52919;DHT22;38793;52.690;6.812;2023-06-14T00:27:16;17.80;65.80
52919;DHT22;38793;52.690;6.812;2023-06-14T00:29:41;17.80;65.80
52919;DHT22;38793;52.690;6.812;2023-06-14T00:32:07;17.80;65.90
52919;DHT22;38793;52.690;6.812;2023-06-14T00:34:33;17.80;66.20
52919;DHT22;38793;52.690;6.812;2023-06-14T00:36:59;17.80;66.30
52919;DHT22;38793;52.690;6.812;2023-06-14T00:39:25;17.70;66.30
52919;DHT22;38793;52.690;6.812;2023-06-14T00:41:50;17.70;66.40
52919;DHT22;38793;52.690;6.812;2023-06-14T00:44:17;17.60;66.80
52919;DHT22;38793;52.690;6.812;2023-06-14T00:46:43;17.60;66.70
52919;DHT22;38793;52.690;6.812;2023-06-14T00:49:09;17.60;67.10
52919;DHT22;38793;52.690;6.812;2023-06-14T00:51:36;17.50;67.50
52919;DHT22;38793;52.690;6.812;2023-06-14T00:54:03;17.40;67.10
52919;DHT22;38793;52.690;6.812;2023-06-14T00:56:28;17.30;67.10
52919;DHT22;38793;52.690;6.812;2023-06-14T00:58:56;17.30;67.40
52919;DHT22;38793;52.690;6.812;2023-06-14T01:01:22;17.30;67.60
52919;DHT22;38793;52.690;6.812;2023-06-14T01:03:49;17.20;67.50
52919;DHT22;38793;52.690;6.812;2023-06-14T01:09:01;17.10;67.90
52919;DHT22;38793;52.690;6.812;2023-06-14T01:11:32;17.10;68.10
52919;DHT22;38793;52.690;6.812;2023-06-14T01:14:02;17.10;68.30
52919;DHT22;38793;52.690;6.812;2023-06-14T01:16:29;17.00;68.20
52919;DHT22;38793;52.690;6.812;2023-06-14T01:18:55;17.00;68.20
52919;DHT22;38793;52.690;6.812;2023-06-14T01:21:23;17.00;68.40
52919;DHT22;38793;52.690;6.812;2023-06-14T01:23:49;17.00;68.50
52919;DHT22;38793;52.690;6.812;2023-06-14T01:26:19;16.90;68.80
52919;DHT22;38793;52.690;6.812;2023-06-14T01:28:46;16.90;68.80
52919;DHT22;38793;52.690;6.812;2023-06-14T01:31:19;16.80;68.90
52919;DHT22;38793;52.690;6.812;2023-06-14T01:33:48;16.80;69.20
52919;DHT22;38793;52.690;6.812;2023-06-14T01:36:15;16.70;69.30
52919;DHT22;38793;52.690;6.812;2023-06-14T01:38:42;16.60;69.50
52919;DHT22;38793;52.690;6.812;2023-06-14T01:41:08;16.60;69.60
52919;DHT22;38793;52.690;6.812;2023-06-14T01:43:35;16.50;69.80
52919;DHT22;38793;52.690;6.812;2023-06-14T01:46:01;16.50;70.30
52919;DHT22;38793;52.690;6.812;2023-06-14T01:48:27;16.50;70.70
52919;DHT22;38793;52.690;6.812;2023-06-14T01:50:53;16.40;70.30
52919;DHT22;38793;52.690;6.812;2023-06-14T01:53:19;16.40;70.30
52919;DHT22;38793;52.690;6.812;2023-06-14T01:55:44;16.40;70.40
52919;DHT22;38793;52.690;6.812;2023-06-14T01:58:14;16.30;70.70
52919;DHT22;38793;52.690;6.812;2023-06-14T02:00:41;16.30;70.80
52919;DHT22;38793;52.690;6.812;2023-06-14T02:03:08;16.20;71.00
52919;DHT22;38793;52.690;6.812;2023-06-14T02:05:34;16.20;71.20
52919;DHT22;38793;52.690;6.812;2023-06-14T02:08:00;16.20;71.50
52919;DHT22;38793;52.690;6.812;2023-06-14T02:10:26;16.10;71.40
52919;DHT22;38793;52.690;6.812;2023-06-14T02:12:51;16.10;71.70
52919;DHT22;38793;52.690;6.812;2023-06-14T02:15:17;16.10;71.80
52919;DHT22;38793;52.690;6.812;2023-06-14T02:17:46;16.00;71.80
52919;DHT22;38793;52.690;6.812;2023-06-14T02:20:15;15.90;72.60
52919;DHT22;38793;52.690;6.812;2023-06-14T02:22:41;15.90;72.20
52919;DHT22;38793;52.690;6.812;2023-06-14T02:25:07;15.80;72.30
52919;DHT22;38793;52.690;6.812;2023-06-14T02:27:33;15.80;72.50
52919;DHT22;38793;52.690;6.812;2023-06-14T02:29:59;15.80;72.60
52919;DHT22;38793;52.690;6.812;2023-06-14T02:32:26;15.80;72.80
52919;DHT22;38793;52.690;6.812;2023-06-14T02:34:53;15.80;73.10
52919;DHT22;38793;52.690;6.812;2023-06-14T02:37:19;15.70;73.30
52919;DHT22;38793;52.690;6.812;2023-06-14T02:39:44;15.60;73.40
52919;DHT22;38793;52.690;6.812;2023-06-14T02:42:11;15.60;73.70
52919;DHT22;38793;52.690;6.812;2023-06-14T02:44:36;15.60;74.10
52919;DHT22;38793;52.690;6.812;2023-06-14T02:47:03;15.50;74.00
52919;DHT22;38793;52.690;6.812;2023-06-14T02:49:28;15.50;74.50
52919;DHT22;38793;52.690;6.812;2023-06-14T02:51:55;15.40;74.50
52919;DHT22;38793;52.690;6.812;2023-06-14T02:54:20;15.40;74.50
52919;DHT22;38793;52.690;6.812;2023-06-14T02:56:46;15.40;74.50
52919;DHT22;38793;52.690;6.812;2023-06-14T02:59:12;15.40;74.80
52919;DHT22;38793;52.690;6.812;2023-06-14T03:01:39;15.40;75.10
52919;DHT22;38793;52.690;6.812;2023-06-14T03:04:07;15.30;75.00
52919;DHT22;38793;52.690;6.812;2023-06-14T03:06:32;15.30;74.70
52919;DHT22;38793;52.690;6.812;2023-06-14T03:08:59;15.30;75.80
52919;DHT22;38793;52.690;6.812;2023-06-14T03:11:29;15.30;75.40
52919;DHT22;38793;52.690;6.812;2023-06-14T03:13:55;15.30;75.60
52919;DHT22;38793;52.690;6.812;2023-06-14T03:16:21;15.30;75.80
52919;DHT22;38793;52.690;6.812;2023-06-14T03:18:50;15.20;76.30
52919;DHT22;38793;52.690;6.812;2023-06-14T03:21:15;15.20;75.90
52919;DHT22;38793;52.690;6.812;2023-06-14T03:23:42;15.30;75.90
52919;DHT22;38793;52.690;6.812;2023-06-14T03:26:08;15.20;76.30
52919;DHT22;38793;52.690;6.812;2023-06-14T03:28:34;15.20;76.30
52919;DHT22;38793;52.690;6.812;2023-06-14T03:31:00;15.20;76.50
52919;DHT22;38793;52.690;6.812;2023-06-14T03:33:26;15.20;76.50
52919;DHT22;38793;52.690;6.812;2023-06-14T03:35:52;15.20;76.80
52919;DHT22;38793;52.690;6.812;2023-06-14T03:38:18;15.20;77.00
52919;DHT22;38793;52.690;6.812;2023-06-14T03:40:44;15.20;77.20
52919;DHT22;38793;52.690;6.812;2023-06-14T03:43:10;15.10;77.40
52919;DHT22;38793;52.690;6.812;2023-06-14T03:45:35;15.10;77.40
52919;DHT22;38793;52.690;6.812;2023-06-14T03:48:01;15.10;77.60
52919;DHT22;38793;52.690;6.812;2023-06-14T03:50:28;15.10;77.80
52919;DHT22;38793;52.690;6.812;2023-06-14T03:52:53;15.00;77.90
52919;DHT22;38793;52.690;6.812;2023-06-14T03:55:19;15.00;78.30
52919;DHT22;38793;52.690;6.812;2023-06-14T03:57:45;15.00;78.40
52919;DHT22;38793;52.690;6.812;2023-06-14T04:00:10;15.00;78.40
52919;DHT22;38793;52.690;6.812;2023-06-14T04:02:38;15.00;78.70
52919;DHT22;38793;52.690;6.812;2023-06-14T04:05:03;15.00;78.70
52919;DHT22;38793;52.690;6.812;2023-06-14T04:07:30;15.00;78.90
52919;DHT22;38793;52.690;6.812;2023-06-14T04:09:56;15.00;79.20
52919;DHT22;38793;52.690;6.812;2023-06-14T04:12:21;15.00;79.30
52919;DHT22;38793;52.690;6.812;2023-06-14T04:14:47;15.00;79.30
52919;DHT22;38793;52.690;6.812;2023-06-14T04:17:13;15.00;79.50
52919;DHT22;38793;52.690;6.812;2023-06-14T04:19:39;15.10;79.80
52919;DHT22;38793;52.690;6.812;2023-06-14T04:22:05;15.10;79.50
52919;DHT22;38793;52.690;6.812;2023-06-14T04:24:31;15.10;79.70
52919;DHT22;38793;52.690;6.812;2023-06-14T04:27:00;15.10;79.80
52919;DHT22;38793;52.690;6.812;2023-06-14T04:29:27;15.10;79.70
52919;DHT22;38793;52.690;6.812;2023-06-14T04:31:55;15.20;79.80
52919;DHT22;38793;52.690;6.812;2023-06-14T04:34:25;15.20;80.10
52919;DHT22;38793;52.690;6.812;2023-06-14T04:36:57;15.20;80.00
52919;DHT22;38793;52.690;6.812;2023-06-14T04:39:25;15.30;80.10
52919;DHT22;38793;52.690;6.812;2023-06-14T04:41:51;15.30;80.30
52919;DHT22;38793;52.690;6.812;2023-06-14T04:44:23;15.30;80.10
52919;DHT22;38793;52.690;6.812;2023-06-14T04:46:58;15.40;80.40
52919;DHT22;38793;52.690;6.812;2023-06-14T04:49:24;15.40;80.20
52919;DHT22;38793;52.690;6.812;2023-06-14T04:51:50;15.40;80.20
52919;DHT22;38793;52.690;6.812;2023-06-14T04:54:27;15.50;80.30
52919;DHT22;38793;52.690;6.812;2023-06-14T04:56:53;15.50;80.50
52919;DHT22;38793;52.690;6.812;2023-06-14T04:59:20;15.60;80.60
52919;DHT22;38793;52.690;6.812;2023-06-14T05:01:51;15.60;81.30
52919;DHT22;38793;52.690;6.812;2023-06-14T05:04:19;15.70;80.00
52919;DHT22;38793;52.690;6.812;2023-06-14T05:06:45;15.80;80.40
52919;DHT22;38793;52.690;6.812;2023-06-14T05:09:13;15.80;80.40
52919;DHT22;38793;52.690;6.812;2023-06-14T05:11:40;15.90;80.60
52919;DHT22;38793;52.690;6.812;2023-06-14T05:14:07;16.00;81.00
52919;DHT22;38793;52.690;6.812;2023-06-14T05:16:33;16.10;80.80
52919;DHT22;38793;52.690;6.812;2023-06-14T05:18:59;16.20;80.70
52919;DHT22;38793;52.690;6.812;2023-06-14T05:21:24;16.20;80.80
52919;DHT22;38793;52.690;6.812;2023-06-14T05:23:50;16.30;80.40
52919;DHT22;38793;52.690;6.812;2023-06-14T05:26:16;16.40;79.70
52919;DHT22;38793;52.690;6.812;2023-06-14T05:28:42;16.50;80.10
52919;DHT22;38793;52.690;6.812;2023-06-14T05:31:08;16.60;80.10
52919;DHT22;38793;52.690;6.812;2023-06-14T05:33:33;16.70;79.50
52919;DHT22;38793;52.690;6.812;2023-06-14T05:35:59;16.80;79.40
52919;DHT22;38793;52.690;6.812;2023-06-14T05:38:24;16.90;79.50
52919;DHT22;38793;52.690;6.812;2023-06-14T05:40:50;16.90;79.70
52919;DHT22;38793;52.690;6.812;2023-06-14T05:43:16;17.00;79.90
52919;DHT22;38793;52.690;6.812;2023-06-14T05:45:42;17.10;78.40
52919;DHT22;38793;52.690;6.812;2023-06-14T05:48:07;17.20;78.90
52919;DHT22;38793;52.690;6.812;2023-06-14T05:50:33;17.30;79.00
52919;DHT22;38793;52.690;6.812;2023-06-14T05:52:59;17.40;78.30
52919;DHT22;38793;52.690;6.812;2023-06-14T05:55:24;17.40;78.50
52919;DHT22;38793;52.690;6.812;2023-06-14T05:57:50;17.60;77.70
52919;DHT22;38793;52.690;6.812;2023-06-14T06:00:16;17.60;77.70
52919;DHT22;38793;52.690;6.812;2023-06-14T06:02:43;17.70;77.50
52919;DHT22;38793;52.690;6.812;2023-06-14T06:05:12;17.80;77.30
52919;DHT22;38793;52.690;6.812;2023-06-14T06:07:38;17.80;77.10
52919;DHT22;38793;52.690;6.812;2023-06-14T06:10:06;17.90;76.70
52919;DHT22;38793;52.690;6.812;2023-06-14T06:12:31;18.00;76.40
52919;DHT22;38793;52.690;6.812;2023-06-14T06:14:58;18.10;75.90
52919;DHT22;38793;52.690;6.812;2023-06-14T06:17:25;18.20;76.70
52919;DHT22;38793;52.690;6.812;2023-06-14T06:19:51;18.30;76.30
52919;DHT22;38793;52.690;6.812;2023-06-14T06:22:16;18.40;75.90
52919;DHT22;38793;52.690;6.812;2023-06-14T06:24:42;18.50;75.10
52919;DHT22;38793;52.690;6.812;2023-06-14T06:27:08;18.60;75.00
52919;DHT22;38793;52.690;6.812;2023-06-14T06:29:34;18.60;74.60
52919;DHT22;38793;52.690;6.812;2023-06-14T06:32:00;18.70;75.30
52919;DHT22;38793;52.690;6.812;2023-06-14T06:34:26;18.80;75.40
52919;DHT22;38793;52.690;6.812;2023-06-14T06:36:52;18.90;75.00
52919;DHT22;38793;52.690;6.812;2023-06-14T06:39:17;18.90;74.30
52919;DHT22;38793;52.690;6.812;2023-06-14T06:41:43;19.00;74.20
52919;DHT22;38793;52.690;6.812;2023-06-14T06:44:09;19.10;73.70
52919;DHT22;38793;52.690;6.812;2023-06-14T06:46:36;19.20;74.60
52919;DHT22;38793;52.690;6.812;2023-06-14T06:49:05;19.30;74.30
52919;DHT22;38793;52.690;6.812;2023-06-14T06:51:31;19.40;74.00
52919;DHT22;38793;52.690;6.812;2023-06-14T06:53:56;19.40;72.80
52919;DHT22;38793;52.690;6.812;2023-06-14T06:56:22;19.50;72.50
52919;DHT22;38793;52.690;6.812;2023-06-14T06:58:51;19.60;74.00
52919;DHT22;38793;52.690;6.812;2023-06-14T07:01:17;19.60;73.40
52919;DHT22;38793;52.690;6.812;2023-06-14T07:03:44;19.70;73.70
52919;DHT22;38793;52.690;6.812;2023-06-14T07:06:09;19.80;73.40
52919;DHT22;38793;52.690;6.812;2023-06-14T07:08:35;19.90;72.20
52919;DHT22;38793;52.690;6.812;2023-06-14T07:11:01;19.90;71.80
52919;DHT22;38793;52.690;6.812;2023-06-14T07:13:27;19.90;72.20
52919;DHT22;38793;52.690;6.812;2023-06-14T07:15:58;20.00;72.30
52919;DHT22;38793;52.690;6.812;2023-06-14T07:18:24;20.10;71.60
52919;DHT22;38793;52.690;6.812;2023-06-14T07:20:50;20.10;71.90
52919;DHT22;38793;52.690;6.812;2023-06-14T07:23:15;20.10;71.60
52919;DHT22;38793;52.690;6.812;2023-06-14T07:25:41;20.20;72.30
52919;DHT22;38793;52.690;6.812;2023-06-14T07:28:06;20.30;71.80
52919;DHT22;38793;52.690;6.812;2023-06-14T07:30:32;20.30;70.70
52919;DHT22;38793;52.690;6.812;2023-06-14T07:32:58;20.40;71.60
52919;DHT22;38793;52.690;6.812;2023-06-14T07:35:23;20.40;69.90
52919;DHT22;38793;52.690;6.812;2023-06-14T07:37:52;20.40;70.30
52919;DHT22;38793;52.690;6.812;2023-06-14T07:40:18;20.40;69.60
52919;DHT22;38793;52.690;6.812;2023-06-14T07:42:43;20.50;69.40
52919;DHT22;38793;52.690;6.812;2023-06-14T07:45:09;20.50;69.20
52919;DHT22;38793;52.690;6.812;2023-06-14T07:47:35;20.60;69.20
52919;DHT22;38793;52.690;6.812;2023-06-14T07:50:00;20.60;68.60
52919;DHT22;38793;52.690;6.812;2023-06-14T07:52:26;20.70;69.50
52919;DHT22;38793;52.690;6.812;2023-06-14T07:54:52;20.80;68.80
52919;DHT22;38793;52.690;6.812;2023-06-14T07:57:17;20.80;68.90
52919;DHT22;38793;52.690;6.812;2023-06-14T07:59:45;20.90;69.20
52919;DHT22;38793;52.690;6.812;2023-06-14T08:02:11;21.00;69.40
52919;DHT22;38793;52.690;6.812;2023-06-14T08:04:36;21.10;67.40
52919;DHT22;38793;52.690;6.812;2023-06-14T08:07:02;21.10;66.90
52919;DHT22;38793;52.690;6.812;2023-06-14T08:09:28;21.20;66.50
52919;DHT22;38793;52.690;6.812;2023-06-14T08:11:54;21.20;67.10
52919;DHT22;38793;52.690;6.812;2023-06-14T08:14:20;21.30;68.20
52919;DHT22;38793;52.690;6.812;2023-06-14T08:16:46;21.40;68.10
52919;DHT22;38793;52.690;6.812;2023-06-14T08:19:11;21.40;67.40
52919;DHT22;38793;52.690;6.812;2023-06-14T08:21:37;21.50;67.60
52919;DHT22;38793;52.690;6.812;2023-06-14T08:24:02;21.50;66.00
52919;DHT22;38793;52.690;6.812;2023-06-14T08:26:29;21.60;66.70
52919;DHT22;38793;52.690;6.812;2023-06-14T08:28:55;21.60;66.60
52919;DHT22;38793;52.690;6.812;2023-06-14T08:31:21;21.60;66.50
52919;DHT22;38793;52.690;6.812;2023-06-14T08:33:47;21.70;66.00
52919;DHT22;38793;52.690;6.812;2023-06-14T08:36:13;21.70;66.60
52919;DHT22;38793;52.690;6.812;2023-06-14T08:38:39;21.80;66.20
52919;DHT22;38793;52.690;6.812;2023-06-14T08:41:05;21.80;65.70
52919;DHT22;38793;52.690;6.812;2023-06-14T08:43:32;21.90;65.80
52919;DHT22;38793;52.690;6.812;2023-06-14T08:46:03;21.90;65.50
52919;DHT22;38793;52.690;6.812;2023-06-14T08:48:29;22.00;65.30
52919;DHT22;38793;52.690;6.812;2023-06-14T08:51:00;22.00;64.90
52919;DHT22;38793;52.690;6.812;2023-06-14T08:53:32;22.00;64.20
52919;DHT22;38793;52.690;6.812;2023-06-14T08:56:02;22.10;65.50
52919;DHT22;38793;52.690;6.812;2023-06-14T08:58:30;22.30;65.60
52919;DHT22;38793;52.690;6.812;2023-06-14T09:00:57;22.40;64.40
52919;DHT22;38793;52.690;6.812;2023-06-14T09:03:24;22.40;64.10
52919;DHT22;38793;52.690;6.812;2023-06-14T09:05:58;22.40;65.00
52919;DHT22;38793;52.690;6.812;2023-06-14T09:08:27;22.40;64.60
52919;DHT22;38793;52.690;6.812;2023-06-14T09:10:57;22.50;64.60
52919;DHT22;38793;52.690;6.812;2023-06-14T09:13:22;22.60;64.90
52919;DHT22;38793;52.690;6.812;2023-06-14T09:15:48;22.60;65.40
52919;DHT22;38793;52.690;6.812;2023-06-14T09:18:13;22.80;64.40
52919;DHT22;38793;52.690;6.812;2023-06-14T09:20:40;22.90;64.80
52919;DHT22;38793;52.690;6.812;2023-06-14T09:23:06;22.90;63.80
52919;DHT22;38793;52.690;6.812;2023-06-14T09:25:41;22.80;62.10
52919;DHT22;38793;52.690;6.812;2023-06-14T09:28:07;22.80;62.70
52919;DHT22;38793;52.690;6.812;2023-06-14T09:30:37;22.70;63.40
52919;DHT22;38793;52.690;6.812;2023-06-14T09:33:03;22.70;63.60
52919;DHT22;38793;52.690;6.812;2023-06-14T09:35:30;22.80;63.40
52919;DHT22;38793;52.690;6.812;2023-06-14T09:37:56;23.00;62.80
52919;DHT22;38793;52.690;6.812;2023-06-14T09:40:21;23.00;62.30
52919;DHT22;38793;52.690;6.812;2023-06-14T09:42:47;23.10;61.70
52919;DHT22;38793;52.690;6.812;2023-06-14T09:45:13;23.00;61.00
52919;DHT22;38793;52.690;6.812;2023-06-14T09:47:41;23.10;60.50
52919;DHT22;38793;52.690;6.812;2023-06-14T09:50:07;23.00;60.00
52919;DHT22;38793;52.690;6.812;2023-06-14T09:52:32;23.10;59.60
52919;DHT22;38793;52.690;6.812;2023-06-14T09:54:59;23.20;61.50
52919;DHT22;38793;52.690;6.812;2023-06-14T09:57:25;23.20;60.10
52919;DHT22;38793;52.690;6.812;2023-06-14T09:59:57;23.20;59.40
52919;DHT22;38793;52.690;6.812;2023-06-14T10:02:29;23.20;60.20
52919;DHT22;38793;52.690;6.812;2023-06-14T10:05:07;23.30;60.30
52919;DHT22;38793;52.690;6.812;2023-06-14T10:07:59;23.30;59.80
52919;DHT22;38793;52.690;6.812;2023-06-14T10:10:25;23.40;60.80
52919;DHT22;38793;52.690;6.812;2023-06-14T10:12:51;23.30;60.50
52919;DHT22;38793;52.690;6.812;2023-06-14T10:18:14;23.30;60.80
52919;DHT22;38793;52.690;6.812;2023-06-14T10:23:25;23.40;60.50
52919;DHT22;38793;52.690;6.812;2023-06-14T10:25:56;23.30;60.00
52919;DHT22;38793;52.690;6.812;2023-06-14T10:28:22;23.40;60.10
52919;DHT22;38793;52.690;6.812;2023-06-14T10:31:08;23.40;60.80
52919;DHT22;38793;52.690;6.812;2023-06-14T10:36:27;23.40;60.30
52919;DHT22;38793;52.690;6.812;2023-06-14T10:39:07;23.30;60.40
52919;DHT22;38793;52.690;6.812;2023-06-14T10:41:36;23.40;61.50
52919;DHT22;38793;52.690;6.812;2023-06-14T10:44:32;23.40;60.00
52919;DHT22;38793;52.690;6.812;2023-06-14T10:47:01;23.40;61.70
52919;DHT22;38793;52.690;6.812;2023-06-14T10:49:44;23.40;60.30
52919;DHT22;38793;52.690;6.812;2023-06-14T10:52:12;23.40;59.80
52919;DHT22;38793;52.690;6.812;2023-06-14T10:55:01;23.50;61.20
52919;DHT22;38793;52.690;6.812;2023-06-14T10:57:29;23.50;61.30
52919;DHT22;38793;52.690;6.812;2023-06-14T10:59:58;23.70;59.60
52919;DHT22;38793;52.690;6.812;2023-06-14T11:02:51;23.80;60.40
52919;DHT22;38793;52.690;6.812;2023-06-14T11:05:24;23.70;59.80
52919;DHT22;38793;52.690;6.812;2023-06-14T11:10:43;23.80;59.80
52919;DHT22;38793;52.690;6.812;2023-06-14T11:13:11;23.80;60.10
52919;DHT22;38793;52.690;6.812;2023-06-14T11:15:37;23.80;60.90
52919;DHT22;38793;52.690;6.812;2023-06-14T11:18:07;23.90;62.00
52919;DHT22;38793;52.690;6.812;2023-06-14T11:20:35;24.00;61.50
52919;DHT22;38793;52.690;6.812;2023-06-14T11:23:02;24.00;60.60
52919;DHT22;38793;52.690;6.812;2023-06-14T11:25:28;24.00;59.80
52919;DHT22;38793;52.690;6.812;2023-06-14T11:27:54;24.00;60.70
52919;DHT22;38793;52.690;6.812;2023-06-14T11:30:20;24.00;60.00
52919;DHT22;38793;52.690;6.812;2023-06-14T11:32:46;24.20;61.10
52919;DHT22;38793;52.690;6.812;2023-06-14T11:35:12;24.10;59.90
52919;DHT22;38793;52.690;6.812;2023-06-14T11:37:39;24.10;59.70
52919;DHT22;38793;52.690;6.812;2023-06-14T11:40:08;24.20;60.70
52919;DHT22;38793;52.690;6.812;2023-06-14T11:42:36;24.20;60.70
52919;DHT22;38793;52.690;6.812;2023-06-14T11:45:03;24.20;61.30
52919;DHT22;38793;52.690;6.812;2023-06-14T11:47:37;24.20;59.60
52919;DHT22;38793;52.690;6.812;2023-06-14T11:50:04;24.20;61.20
52919;DHT22;38793;52.690;6.812;2023-06-14T11:52:31;24.20;60.60
52919;DHT22;38793;52.690;6.812;2023-06-14T11:54:57;24.20;60.80
52919;DHT22;38793;52.690;6.812;2023-06-14T11:57:24;24.30;60.50
52919;DHT22;38793;52.690;6.812;2023-06-14T11:59:49;24.30;61.00
52919;DHT22;38793;52.690;6.812;2023-06-14T12:02:16;24.40;61.60
52919;DHT22;38793;52.690;6.812;2023-06-14T12:04:43;24.50;61.00
52919;DHT22;38793;52.690;6.812;2023-06-14T12:07:12;24.70;62.10
52919;DHT22;38793;52.690;6.812;2023-06-14T12:10:03;24.60;60.10
52919;DHT22;38793;52.690;6.812;2023-06-14T12:12:35;24.50;60.60
52919;DHT22;38793;52.690;6.812;2023-06-14T12:15:06;24.40;60.60
52919;DHT22;38793;52.690;6.812;2023-06-14T12:17:36;24.40;59.10
52919;DHT22;38793;52.690;6.812;2023-06-14T12:20:09;24.40;60.00
52919;DHT22;38793;52.690;6.812;2023-06-14T12:22:37;24.40;59.90
52919;DHT22;38793;52.690;6.812;2023-06-14T12:25:04;24.40;60.40
52919;DHT22;38793;52.690;6.812;2023-06-14T12:27:30;24.40;59.90
52919;DHT22;38793;52.690;6.812;2023-06-14T12:30:03;24.30;59.90
52919;DHT22;38793;52.690;6.812;2023-06-14T12:32:29;24.40;60.10
52919;DHT22;38793;52.690;6.812;2023-06-14T12:34:55;24.50;60.30
52919;DHT22;38793;52.690;6.812;2023-06-14T12:37:20;24.50;59.40
52919;DHT22;38793;52.690;6.812;2023-06-14T12:39:46;24.50;59.80
52919;DHT22;38793;52.690;6.812;2023-06-14T12:42:11;24.60;60.40
52919;DHT22;38793;52.690;6.812;2023-06-14T12:44:40;24.60;60.60
52919;DHT22;38793;52.690;6.812;2023-06-14T12:47:07;24.70;60.50
52919;DHT22;38793;52.690;6.812;2023-06-14T12:49:33;24.70;60.30
52919;DHT22;38793;52.690;6.812;2023-06-14T12:51:59;24.70;59.30
52919;DHT22;38793;52.690;6.812;2023-06-14T12:54:24;24.70;61.20
52919;DHT22;38793;52.690;6.812;2023-06-14T12:56:51;24.80;61.20
52919;DHT22;38793;52.690;6.812;2023-06-14T12:59:17;24.90;59.40
52919;DHT22;38793;52.690;6.812;2023-06-14T13:01:43;24.90;60.60
52919;DHT22;38793;52.690;6.812;2023-06-14T13:04:10;24.80;58.90
52919;DHT22;38793;52.690;6.812;2023-06-14T13:06:36;24.90;60.70
52919;DHT22;38793;52.690;6.812;2023-06-14T13:09:01;24.90;60.40
52919;DHT22;38793;52.690;6.812;2023-06-14T13:11:29;25.00;60.10
52919;DHT22;38793;52.690;6.812;2023-06-14T13:13:54;25.00;59.60
52919;DHT22;38793;52.690;6.812;2023-06-14T13:16:20;25.10;59.50
52919;DHT22;38793;52.690;6.812;2023-06-14T13:18:46;25.10;59.60
52919;DHT22;38793;52.690;6.812;2023-06-14T13:21:11;25.20;59.30
52919;DHT22;38793;52.690;6.812;2023-06-14T13:23:37;25.10;59.30
52919;DHT22;38793;52.690;6.812;2023-06-14T13:26:02;25.20;60.50
52919;DHT22;38793;52.690;6.812;2023-06-14T13:28:28;25.10;59.50
52919;DHT22;38793;52.690;6.812;2023-06-14T13:30:53;25.10;58.70
52919;DHT22;38793;52.690;6.812;2023-06-14T13:33:21;25.10;59.10
52919;DHT22;38793;52.690;6.812;2023-06-14T13:35:46;25.10;59.30
52919;DHT22;38793;52.690;6.812;2023-06-14T13:38:14;25.10;59.50
52919;DHT22;38793;52.690;6.812;2023-06-14T13:40:40;25.20;59.80
52919;DHT22;38793;52.690;6.812;2023-06-14T13:43:06;25.20;59.80
52919;DHT22;38793;52.690;6.812;2023-06-14T13:45:32;25.20;59.90
52919;DHT22;38793;52.690;6.812;2023-06-14T13:47:57;25.10;58.90
52919;DHT22;38793;52.690;6.812;2023-06-14T13:50:23;25.10;59.10
52919;DHT22;38793;52.690;6.812;2023-06-14T13:52:49;25.10;59.30
52919;DHT22;38793;52.690;6.812;2023-06-14T13:55:14;25.10;59.00
52919;DHT22;38793;52.690;6.812;2023-06-14T13:57:40;25.20;59.70
52919;DHT22;38793;52.690;6.812;2023-06-14T14:00:06;25.10;59.40
52919;DHT22;38793;52.690;6.812;2023-06-14T14:02:32;25.20;59.60
52919;DHT22;38793;52.690;6.812;2023-06-14T14:04:57;25.20;58.70
52919;DHT22;38793;52.690;6.812;2023-06-14T14:07:23;25.20;59.40
52919;DHT22;38793;52.690;6.812;2023-06-14T14:09:49;25.20;59.10
52919;DHT22;38793;52.690;6.812;2023-06-14T14:12:14;25.30;59.70
52919;DHT22;38793;52.690;6.812;2023-06-14T14:14:40;25.30;59.10
52919;DHT22;38793;52.690;6.812;2023-06-14T14:17:06;25.20;58.50
52919;DHT22;38793;52.690;6.812;2023-06-14T14:19:32;25.30;59.80
52919;DHT22;38793;52.690;6.812;2023-06-14T14:21:58;25.30;59.80
52919;DHT22;38793;52.690;6.812;2023-06-14T14:24:24;25.30;60.10
52919;DHT22;38793;52.690;6.812;2023-06-14T14:26:50;25.40;59.40
52919;DHT22;38793;52.690;6.812;2023-06-14T14:29:19;25.40;58.90
52919;DHT22;38793;52.690;6.812;2023-06-14T14:31:44;25.40;59.20
52919;DHT22;38793;52.690;6.812;2023-06-14T14:34:10;25.40;58.60
52919;DHT22;38793;52.690;6.812;2023-06-14T14:36:36;25.40;58.80
52919;DHT22;38793;52.690;6.812;2023-06-14T14:39:04;25.40;58.30
52919;DHT22;38793;52.690;6.812;2023-06-14T14:41:29;25.40;59.50
52919;DHT22;38793;52.690;6.812;2023-06-14T14:43:55;25.50;59.10
52919;DHT22;38793;52.690;6.812;2023-06-14T14:46:21;25.50;59.20
52919;DHT22;38793;52.690;6.812;2023-06-14T14:48:46;25.40;59.10
52919;DHT22;38793;52.690;6.812;2023-06-14T14:51:12;25.20;58.10
52919;DHT22;38793;52.690;6.812;2023-06-14T14:53:37;25.30;58.50
52919;DHT22;38793;52.690;6.812;2023-06-14T14:56:03;25.30;58.80
52919;DHT22;38793;52.690;6.812;2023-06-14T14:58:29;25.40;58.30
52919;DHT22;38793;52.690;6.812;2023-06-14T15:00:54;25.40;59.20
52919;DHT22;38793;52.690;6.812;2023-06-14T15:03:20;25.40;58.90
52919;DHT22;38793;52.690;6.812;2023-06-14T15:05:46;25.40;58.80
52919;DHT22;38793;52.690;6.812;2023-06-14T15:08:12;25.40;58.30
52919;DHT22;38793;52.690;6.812;2023-06-14T15:10:38;25.40;58.60
52919;DHT22;38793;52.690;6.812;2023-06-14T15:13:07;25.20;58.00
52919;DHT22;38793;52.690;6.812;2023-06-14T15:15:33;25.30;58.10
52919;DHT22;38793;52.690;6.812;2023-06-14T15:17:59;25.30;58.00
52919;DHT22;38793;52.690;6.812;2023-06-14T15:20:25;25.30;58.30
52919;DHT22;38793;52.690;6.812;2023-06-14T15:22:51;25.30;58.40
52919;DHT22;38793;52.690;6.812;2023-06-14T15:25:17;25.30;58.90
52919;DHT22;38793;52.690;6.812;2023-06-14T15:27:43;25.30;60.00
52919;DHT22;38793;52.690;6.812;2023-06-14T15:30:09;25.30;58.70
52919;DHT22;38793;52.690;6.812;2023-06-14T15:32:35;25.30;58.30
52919;DHT22;38793;52.690;6.812;2023-06-14T15:35:00;25.40;58.30
52919;DHT22;38793;52.690;6.812;2023-06-14T15:37:26;25.40;58.40
52919;DHT22;38793;52.690;6.812;2023-06-14T15:39:51;25.30;58.10
52919;DHT22;38793;52.690;6.812;2023-06-14T15:42:17;25.30;57.40